Terminal Aerodrome Forecast
Issued by NWS Wakefield, VA

Home | Current Version | Previous Version | Text Only | Print | Product List | Glossary On
Versions: 1 2 3 4 5 6 7 8 9 10 11 12 13 14 15 16
000
FTUS41 KAKQ 021700
TAFORF
TAF
KORF 021732Z 0218/0318 26010KT P6SM SCT060
     FM022100 22010KT P6SM SCT050 BKN080
     FM030900 28007KT P6SM BKN080=

USA.gov is the U.S. government's official web portal to all federal, state and local government web resources and services.